sensor_id;sensor_type;location;lat;lon;timestamp;P1;durP1;ratioP1;P2;durP2;ratioP2
67063;SDS011;58476;48.072;11.970;2023-05-20T00:01:57;2.85;;;1.60;;
67063;SDS011;58476;48.072;11.970;2023-05-20T00:04:22;4.47;;;1.98;;
67063;SDS011;58476;48.072;11.970;2023-05-20T00:06:47;2.45;;;1.70;;
67063;SDS011;58476;48.072;11.970;2023-05-20T00:09:13;3.85;;;1.90;;
67063;SDS011;58476;48.072;11.970;2023-05-20T00:11:38;2.47;;;1.80;;
67063;SDS011;58476;48.072;11.970;2023-05-20T00:14:04;1.92;;;1.67;;
67063;SDS011;58476;48.072;11.970;2023-05-20T00:16:29;3.50;;;1.90;;
67063;SDS011;58476;48.072;11.970;2023-05-20T00:18:54;1.88;;;1.70;;
67063;SDS011;58476;48.072;11.970;2023-05-20T00:21:20;2.85;;;2.13;;
67063;SDS011;58476;48.072;11.970;2023-05-20T00:23:45;3.05;;;1.92;;
67063;SDS011;58476;48.072;11.970;2023-05-20T00:26:10;2.13;;;1.65;;
67063;SDS011;58476;48.072;11.970;2023-05-20T00:28:36;8.73;;;2.40;;
67063;SDS011;58476;48.072;11.970;2023-05-20T00:31:01;2.45;;;1.70;;
67063;SDS011;58476;48.072;11.970;2023-05-20T00:33:27;3.42;;;2.20;;
67063;SDS011;58476;48.072;11.970;2023-05-20T00:35:52;6.90;;;1.80;;
67063;SDS011;58476;48.072;11.970;2023-05-20T00:38:17;3.58;;;1.77;;
67063;SDS011;58476;48.072;11.970;2023-05-20T00:40:43;2.65;;;1.90;;
67063;SDS011;58476;48.072;11.970;2023-05-20T00:43:08;3.75;;;1.88;;
67063;SDS011;58476;48.072;11.970;2023-05-20T00:45:33;1.80;;;1.70;;
67063;SDS011;58476;48.072;11.970;2023-05-20T00:47:59;2.03;;;1.63;;
67063;SDS011;58476;48.072;11.970;2023-05-20T00:50:25;4.40;;;1.85;;
67063;SDS011;58476;48.072;11.970;2023-05-20T00:52:51;2.88;;;1.92;;
67063;SDS011;58476;48.072;11.970;2023-05-20T00:55:17;2.42;;;1.77;;
67063;SDS011;58476;48.072;11.970;2023-05-20T00:57:42;2.05;;;1.70;;
67063;SDS011;58476;48.072;11.970;2023-05-20T01:00:08;2.10;;;1.90;;
67063;SDS011;58476;48.072;11.970;2023-05-20T01:02:34;2.25;;;1.50;;
67063;SDS011;58476;48.072;11.970;2023-05-20T01:04:59;1.88;;;1.70;;
67063;SDS011;58476;48.072;11.970;2023-05-20T01:07:24;3.10;;;1.80;;
67063;SDS011;58476;48.072;11.970;2023-05-20T01:09:50;2.30;;;1.80;;
67063;SDS011;58476;48.072;11.970;2023-05-20T01:12:25;1.88;;;1.70;;
67063;SDS011;58476;48.072;11.970;2023-05-20T01:14:55;2.53;;;1.50;;
67063;SDS011;58476;48.072;11.970;2023-05-20T01:17:23;2.45;;;1.70;;
67063;SDS011;58476;48.072;11.970;2023-05-20T01:19:50;2.30;;;1.75;;
67063;SDS011;58476;48.072;11.970;2023-05-20T01:22:26;1.90;;;1.80;;
67063;SDS011;58476;48.072;11.970;2023-05-20T01:24:52;1.75;;;1.60;;
67063;SDS011;58476;48.072;11.970;2023-05-20T01:27:18;2.40;;;1.73;;
67063;SDS011;58476;48.072;11.970;2023-05-20T01:29:44;2.22;;;1.70;;
67063;SDS011;58476;48.072;11.970;2023-05-20T01:32:11;4.53;;;1.85;;
67063;SDS011;58476;48.072;11.970;2023-05-20T01:34:43;3.15;;;1.70;;
67063;SDS011;58476;48.072;11.970;2023-05-20T01:37:09;1.80;;;1.70;;
67063;SDS011;58476;48.072;11.970;2023-05-20T01:39:35;2.83;;;1.70;;
67063;SDS011;58476;48.072;11.970;2023-05-20T01:42:03;3.17;;;1.70;;
67063;SDS011;58476;48.072;11.970;2023-05-20T01:44:29;5.28;;;1.90;;
67063;SDS011;58476;48.072;11.970;2023-05-20T01:46:55;1.92;;;1.70;;
67063;SDS011;58476;48.072;11.970;2023-05-20T01:49:20;1.92;;;1.73;;
67063;SDS011;58476;48.072;11.970;2023-05-20T01:51:46;2.03;;;1.67;;
67063;SDS011;58476;48.072;11.970;2023-05-20T01:54:11;9.38;;;2.10;;
67063;SDS011;58476;48.072;11.970;2023-05-20T01:56:36;3.42;;;1.90;;
67063;SDS011;58476;48.072;11.970;2023-05-20T01:59:02;2.72;;;1.90;;
67063;SDS011;58476;48.072;11.970;2023-05-20T02:01:27;3.72;;;2.03;;
67063;SDS011;58476;48.072;11.970;2023-05-20T02:03:53;2.10;;;1.88;;
67063;SDS011;58476;48.072;11.970;2023-05-20T02:06:18;2.53;;;1.90;;
67063;SDS011;58476;48.072;11.970;2023-05-20T02:08:43;2.38;;;1.75;;
67063;SDS011;58476;48.072;11.970;2023-05-20T02:11:09;2.47;;;1.75;;
67063;SDS011;58476;48.072;11.970;2023-05-20T02:13:35;2.83;;;2.00;;
67063;SDS011;58476;48.072;11.970;2023-05-20T02:16:00;2.35;;;1.70;;
67063;SDS011;58476;48.072;11.970;2023-05-20T02:18:26;2.75;;;1.80;;
67063;SDS011;58476;48.072;11.970;2023-05-20T02:20:51;2.72;;;1.77;;
67063;SDS011;58476;48.072;11.970;2023-05-20T02:23:16;2.38;;;1.80;;
67063;SDS011;58476;48.072;11.970;2023-05-20T02:25:42;1.73;;;1.58;;
67063;SDS011;58476;48.072;11.970;2023-05-20T02:28:08;3.47;;;1.70;;
67063;SDS011;58476;48.072;11.970;2023-05-20T02:30:34;4.43;;;1.75;;
67063;SDS011;58476;48.072;11.970;2023-05-20T02:32:59;2.08;;;1.85;;
67063;SDS011;58476;48.072;11.970;2023-05-20T02:35:24;2.15;;;1.70;;
67063;SDS011;58476;48.072;11.970;2023-05-20T02:37:50;2.08;;;1.65;;
67063;SDS011;58476;48.072;11.970;2023-05-20T02:40:15;2.30;;;1.75;;
67063;SDS011;58476;48.072;11.970;2023-05-20T02:42:41;4.32;;;2.08;;
67063;SDS011;58476;48.072;11.970;2023-05-20T02:45:06;2.78;;;1.77;;
67063;SDS011;58476;48.072;11.970;2023-05-20T02:47:32;2.03;;;1.83;;
67063;SDS011;58476;48.072;11.970;2023-05-20T02:49:57;2.47;;;1.90;;
67063;SDS011;58476;48.072;11.970;2023-05-20T02:52:23;3.30;;;1.80;;
67063;SDS011;58476;48.072;11.970;2023-05-20T02:54:48;2.67;;;1.67;;
67063;SDS011;58476;48.072;11.970;2023-05-20T02:57:13;2.55;;;1.90;;
67063;SDS011;58476;48.072;11.970;2023-05-20T02:59:39;3.75;;;1.80;;
67063;SDS011;58476;48.072;11.970;2023-05-20T03:02:04;1.80;;;1.70;;
67063;SDS011;58476;48.072;11.970;2023-05-20T03:04:30;2.85;;;1.95;;
67063;SDS011;58476;48.072;11.970;2023-05-20T03:06:56;2.20;;;1.88;;
67063;SDS011;58476;48.072;11.970;2023-05-20T03:09:21;3.10;;;2.10;;
67063;SDS011;58476;48.072;11.970;2023-05-20T03:11:46;2.28;;;1.92;;
67063;SDS011;58476;48.072;11.970;2023-05-20T03:14:12;2.70;;;1.80;;
67063;SDS011;58476;48.072;11.970;2023-05-20T03:16:37;2.88;;;1.90;;
67063;SDS011;58476;48.072;11.970;2023-05-20T03:19:04;2.30;;;2.00;;
67063;SDS011;58476;48.072;11.970;2023-05-20T03:21:29;2.88;;;2.08;;
67063;SDS011;58476;48.072;11.970;2023-05-20T03:23:54;2.05;;;1.85;;
67063;SDS011;58476;48.072;11.970;2023-05-20T03:26:20;4.55;;;2.00;;
67063;SDS011;58476;48.072;11.970;2023-05-20T03:28:45;2.05;;;1.80;;
67063;SDS011;58476;48.072;11.970;2023-05-20T03:31:10;3.13;;;2.10;;
67063;SDS011;58476;48.072;11.970;2023-05-20T03:33:36;2.22;;;2.00;;
67063;SDS011;58476;48.072;11.970;2023-05-20T03:36:02;3.13;;;2.13;;
67063;SDS011;58476;48.072;11.970;2023-05-20T03:38:27;3.40;;;2.30;;
67063;SDS011;58476;48.072;11.970;2023-05-20T03:40:53;3.40;;;2.35;;
67063;SDS011;58476;48.072;11.970;2023-05-20T03:43:18;3.55;;;2.50;;
67063;SDS011;58476;48.072;11.970;2023-05-20T03:45:43;2.58;;;2.13;;
67063;SDS011;58476;48.072;11.970;2023-05-20T03:48:08;3.25;;;2.20;;
67063;SDS011;58476;48.072;11.970;2023-05-20T03:50:34;2.45;;;2.00;;
67063;SDS011;58476;48.072;11.970;2023-05-20T03:53:00;2.70;;;2.10;;
67063;SDS011;58476;48.072;11.970;2023-05-20T03:55:26;2.67;;;1.95;;
67063;SDS011;58476;48.072;11.970;2023-05-20T03:57:52;2.95;;;2.10;;
67063;SDS011;58476;48.072;11.970;2023-05-20T04:00:17;2.72;;;1.80;;
67063;SDS011;58476;48.072;11.970;2023-05-20T04:02:43;2.50;;;2.00;;
67063;SDS011;58476;48.072;11.970;2023-05-20T04:05:11;2.88;;;2.10;;
67063;SDS011;58476;48.072;11.970;2023-05-20T04:07:37;2.22;;;2.00;;
67063;SDS011;58476;48.072;11.970;2023-05-20T04:10:03;2.10;;;1.90;;
67063;SDS011;58476;48.072;11.970;2023-05-20T04:12:29;2.30;;;1.90;;
67063;SDS011;58476;48.072;11.970;2023-05-20T04:14:58;2.60;;;2.10;;
67063;SDS011;58476;48.072;11.970;2023-05-20T04:17:24;3.03;;;2.30;;
67063;SDS011;58476;48.072;11.970;2023-05-20T04:19:50;4.63;;;2.10;;
67063;SDS011;58476;48.072;11.970;2023-05-20T04:22:15;2.63;;;2.00;;
67063;SDS011;58476;48.072;11.970;2023-05-20T04:24:40;2.42;;;1.98;;
67063;SDS011;58476;48.072;11.970;2023-05-20T04:27:06;4.30;;;2.05;;
67063;SDS011;58476;48.072;11.970;2023-05-20T04:29:31;2.85;;;2.20;;
67063;SDS011;58476;48.072;11.970;2023-05-20T04:31:57;4.47;;;2.60;;
67063;SDS011;58476;48.072;11.970;2023-05-20T04:34:22;3.53;;;2.17;;
67063;SDS011;58476;48.072;11.970;2023-05-20T04:36:48;3.83;;;2.40;;
67063;SDS011;58476;48.072;11.970;2023-05-20T04:39:13;5.90;;;2.15;;
67063;SDS011;58476;48.072;11.970;2023-05-20T04:41:39;6.80;;;2.83;;
67063;SDS011;58476;48.072;11.970;2023-05-20T04:44:04;3.83;;;2.47;;
67063;SDS011;58476;48.072;11.970;2023-05-20T04:46:29;9.07;;;2.63;;
67063;SDS011;58476;48.072;11.970;2023-05-20T04:48:56;6.03;;;2.53;;
67063;SDS011;58476;48.072;11.970;2023-05-20T04:51:21;3.22;;;2.13;;
67063;SDS011;58476;48.072;11.970;2023-05-20T04:53:47;3.08;;;2.20;;
67063;SDS011;58476;48.072;11.970;2023-05-20T04:56:12;3.03;;;2.28;;
67063;SDS011;58476;48.072;11.970;2023-05-20T04:58:38;3.17;;;2.40;;
67063;SDS011;58476;48.072;11.970;2023-05-20T05:01:03;4.50;;;2.53;;
67063;SDS011;58476;48.072;11.970;2023-05-20T05:03:28;4.60;;;2.35;;
67063;SDS011;58476;48.072;11.970;2023-05-20T05:05:55;4.80;;;2.50;;
67063;SDS011;58476;48.072;11.970;2023-05-20T05:08:21;5.68;;;2.47;;
67063;SDS011;58476;48.072;11.970;2023-05-20T05:10:50;4.93;;;2.60;;
67063;SDS011;58476;48.072;11.970;2023-05-20T05:13:15;4.95;;;2.63;;
67063;SDS011;58476;48.072;11.970;2023-05-20T05:15:40;9.13;;;2.53;;
67063;SDS011;58476;48.072;11.970;2023-05-20T05:18:06;5.50;;;2.90;;
67063;SDS011;58476;48.072;11.970;2023-05-20T05:20:32;3.53;;;2.50;;
67063;SDS011;58476;48.072;11.970;2023-05-20T05:22:58;4.53;;;2.65;;
67063;SDS011;58476;48.072;11.970;2023-05-20T05:25:23;6.65;;;2.67;;
67063;SDS011;58476;48.072;11.970;2023-05-20T05:27:48;5.10;;;2.42;;
67063;SDS011;58476;48.072;11.970;2023-05-20T05:30:14;6.68;;;2.50;;
67063;SDS011;58476;48.072;11.970;2023-05-20T05:32:40;5.82;;;2.53;;
67063;SDS011;58476;48.072;11.970;2023-05-20T05:35:05;5.22;;;2.90;;
67063;SDS011;58476;48.072;11.970;2023-05-20T05:37:31;4.75;;;2.50;;
67063;SDS011;58476;48.072;11.970;2023-05-20T05:39:56;4.40;;;2.65;;
67063;SDS011;58476;48.072;11.970;2023-05-20T05:42:22;4.43;;;2.78;;
67063;SDS011;58476;48.072;11.970;2023-05-20T05:44:48;6.30;;;3.15;;
67063;SDS011;58476;48.072;11.970;2023-05-20T05:47:14;3.88;;;3.10;;
67063;SDS011;58476;48.072;11.970;2023-05-20T05:49:40;6.07;;;2.83;;
67063;SDS011;58476;48.072;11.970;2023-05-20T05:52:05;5.00;;;3.30;;
67063;SDS011;58476;48.072;11.970;2023-05-20T05:54:31;6.07;;;2.90;;
67063;SDS011;58476;48.072;11.970;2023-05-20T05:56:57;4.10;;;2.88;;
67063;SDS011;58476;48.072;11.970;2023-05-20T05:59:24;4.57;;;2.80;;
67063;SDS011;58476;48.072;11.970;2023-05-20T06:01:49;11.13;;;3.85;;
67063;SDS011;58476;48.072;11.970;2023-05-20T06:04:15;14.40;;;3.50;;
67063;SDS011;58476;48.072;11.970;2023-05-20T06:06:40;4.97;;;3.30;;
67063;SDS011;58476;48.072;11.970;2023-05-20T06:09:05;9.57;;;3.30;;
67063;SDS011;58476;48.072;11.970;2023-05-20T06:11:31;7.40;;;3.10;;
67063;SDS011;58476;48.072;11.970;2023-05-20T06:13:57;7.95;;;2.95;;
67063;SDS011;58476;48.072;11.970;2023-05-20T06:16:23;6.93;;;3.00;;
67063;SDS011;58476;48.072;11.970;2023-05-20T06:18:49;10.40;;;3.28;;
67063;SDS011;58476;48.072;11.970;2023-05-20T06:21:15;9.10;;;3.03;;
67063;SDS011;58476;48.072;11.970;2023-05-20T06:23:40;7.65;;;3.00;;
67063;SDS011;58476;48.072;11.970;2023-05-20T06:26:09;7.88;;;3.30;;
67063;SDS011;58476;48.072;11.970;2023-05-20T06:28:34;9.15;;;2.88;;
67063;SDS011;58476;48.072;11.970;2023-05-20T06:31:00;3.42;;;2.63;;
67063;SDS011;58476;48.072;11.970;2023-05-20T06:33:29;5.72;;;3.20;;
67063;SDS011;58476;48.072;11.970;2023-05-20T06:35:58;5.65;;;3.00;;
67063;SDS011;58476;48.072;11.970;2023-05-20T06:38:24;12.75;;;3.35;;
67063;SDS011;58476;48.072;11.970;2023-05-20T06:40:49;7.57;;;3.28;;
67063;SDS011;58476;48.072;11.970;2023-05-20T06:43:16;11.48;;;3.45;;
67063;SDS011;58476;48.072;11.970;2023-05-20T06:45:50;17.75;;;3.45;;
67063;SDS011;58476;48.072;11.970;2023-05-20T06:50:46;11.57;;;3.07;;
67063;SDS011;58476;48.072;11.970;2023-05-20T06:53:12;12.63;;;3.05;;
67063;SDS011;58476;48.072;11.970;2023-05-20T06:55:38;10.55;;;3.70;;
67063;SDS011;58476;48.072;11.970;2023-05-20T06:58:04;7.35;;;3.47;;
67063;SDS011;58476;48.072;11.970;2023-05-20T07:00:29;12.93;;;3.03;;
67063;SDS011;58476;48.072;11.970;2023-05-20T07:02:55;12.07;;;3.33;;
67063;SDS011;58476;48.072;11.970;2023-05-20T07:05:21;13.20;;;3.35;;
67063;SDS011;58476;48.072;11.970;2023-05-20T07:07:46;7.68;;;3.30;;
67063;SDS011;58476;48.072;11.970;2023-05-20T07:10:12;7.63;;;3.75;;
67063;SDS011;58476;48.072;11.970;2023-05-20T07:12:37;12.70;;;4.45;;
67063;SDS011;58476;48.072;11.970;2023-05-20T07:15:03;9.73;;;4.22;;
67063;SDS011;58476;48.072;11.970;2023-05-20T07:17:29;8.50;;;3.40;;
67063;SDS011;58476;48.072;11.970;2023-05-20T07:19:55;12.13;;;3.53;;
67063;SDS011;58476;48.072;11.970;2023-05-20T07:22:20;8.20;;;3.70;;
67063;SDS011;58476;48.072;11.970;2023-05-20T07:24:54;10.63;;;4.38;;
67063;SDS011;58476;48.072;11.970;2023-05-20T07:27:19;9.98;;;4.15;;
67063;SDS011;58476;48.072;11.970;2023-05-20T07:29:45;9.13;;;4.25;;
67063;SDS011;58476;48.072;11.970;2023-05-20T07:32:10;12.38;;;4.20;;
67063;SDS011;58476;48.072;11.970;2023-05-20T07:34:36;6.45;;;3.70;;
67063;SDS011;58476;48.072;11.970;2023-05-20T07:37:02;6.32;;;3.90;;
67063;SDS011;58476;48.072;11.970;2023-05-20T07:39:27;8.02;;;3.72;;
67063;SDS011;58476;48.072;11.970;2023-05-20T07:41:53;10.20;;;3.90;;
67063;SDS011;58476;48.072;11.970;2023-05-20T07:44:18;10.23;;;3.47;;
67063;SDS011;58476;48.072;11.970;2023-05-20T07:46:46;7.07;;;3.40;;
67063;SDS011;58476;48.072;11.970;2023-05-20T07:49:12;7.70;;;3.67;;
67063;SDS011;58476;48.072;11.970;2023-05-20T07:51:38;7.85;;;3.58;;
67063;SDS011;58476;48.072;11.970;2023-05-20T07:54:04;9.98;;;3.83;;
67063;SDS011;58476;48.072;11.970;2023-05-20T07:56:30;7.65;;;3.50;;
67063;SDS011;58476;48.072;11.970;2023-05-20T07:58:56;5.25;;;3.50;;
67063;SDS011;58476;48.072;11.970;2023-05-20T08:01:24;9.15;;;3.25;;
67063;SDS011;58476;48.072;11.970;2023-05-20T08:03:51;6.72;;;3.45;;
67063;SDS011;58476;48.072;11.970;2023-05-20T08:06:21;5.55;;;3.20;;
67063;SDS011;58476;48.072;11.970;2023-05-20T08:08:46;7.57;;;3.30;;
67063;SDS011;58476;48.072;11.970;2023-05-20T08:11:17;10.65;;;3.42;;
67063;SDS011;58476;48.072;11.970;2023-05-20T08:13:43;7.85;;;3.63;;
67063;SDS011;58476;48.072;11.970;2023-05-20T08:16:08;12.27;;;3.50;;
67063;SDS011;58476;48.072;11.970;2023-05-20T08:18:34;4.47;;;3.28;;
67063;SDS011;58476;48.072;11.970;2023-05-20T08:21:00;10.18;;;3.88;;
67063;SDS011;58476;48.072;11.970;2023-05-20T08:23:26;10.57;;;3.25;;
67063;SDS011;58476;48.072;11.970;2023-05-20T08:25:51;4.93;;;2.80;;
67063;SDS011;58476;48.072;11.970;2023-05-20T08:28:19;11.38;;;3.40;;
67063;SDS011;58476;48.072;11.970;2023-05-20T08:30:45;6.18;;;2.88;;
67063;SDS011;58476;48.072;11.970;2023-05-20T08:33:10;4.65;;;2.85;;
67063;SDS011;58476;48.072;11.970;2023-05-20T08:35:35;4.40;;;2.88;;
67063;SDS011;58476;48.072;11.970;2023-05-20T08:38:01;7.10;;;3.20;;
67063;SDS011;58476;48.072;11.970;2023-05-20T08:40:27;5.35;;;3.08;;
67063;SDS011;58476;48.072;11.970;2023-05-20T08:42:52;6.57;;;3.65;;
67063;SDS011;58476;48.072;11.970;2023-05-20T08:45:18;7.03;;;3.13;;
67063;SDS011;58476;48.072;11.970;2023-05-20T08:47:44;8.40;;;3.15;;
67063;SDS011;58476;48.072;11.970;2023-05-20T08:50:11;4.28;;;2.85;;
67063;SDS011;58476;48.072;11.970;2023-05-20T08:52:44;7.70;;;3.00;;
67063;SDS011;58476;48.072;11.970;2023-05-20T08:55:13;5.70;;;3.33;;
67063;SDS011;58476;48.072;11.970;2023-05-20T08:57:42;6.47;;;3.10;;
67063;SDS011;58476;48.072;11.970;2023-05-20T09:00:08;9.27;;;3.20;;
67063;SDS011;58476;48.072;11.970;2023-05-20T09:02:38;7.35;;;3.55;;
67063;SDS011;58476;48.072;11.970;2023-05-20T09:05:03;8.38;;;3.30;;
67063;SDS011;58476;48.072;11.970;2023-05-20T09:07:29;6.15;;;3.30;;
67063;SDS011;58476;48.072;11.970;2023-05-20T09:09:55;6.25;;;3.20;;
67063;SDS011;58476;48.072;11.970;2023-05-20T09:12:21;6.20;;;3.35;;
67063;SDS011;58476;48.072;11.970;2023-05-20T09:14:46;8.15;;;3.30;;
67063;SDS011;58476;48.072;11.970;2023-05-20T09:17:12;8.02;;;3.50;;
67063;SDS011;58476;48.072;11.970;2023-05-20T09:19:38;9.93;;;3.28;;
67063;SDS011;58476;48.072;11.970;2023-05-20T09:22:03;11.80;;;3.50;;
67063;SDS011;58476;48.072;11.970;2023-05-20T09:24:28;7.25;;;3.17;;
67063;SDS011;58476;48.072;11.970;2023-05-20T09:26:54;6.97;;;3.30;;
67063;SDS011;58476;48.072;11.970;2023-05-20T09:29:19;7.22;;;3.10;;
67063;SDS011;58476;48.072;11.970;2023-05-20T09:31:44;6.85;;;2.88;;
67063;SDS011;58476;48.072;11.970;2023-05-20T09:34:10;7.72;;;3.10;;
67063;SDS011;58476;48.072;11.970;2023-05-20T09:36:36;6.70;;;2.78;;
67063;SDS011;58476;48.072;11.970;2023-05-20T09:39:03;8.65;;;3.00;;
67063;SDS011;58476;48.072;11.970;2023-05-20T09:41:32;8.88;;;2.80;;
67063;SDS011;58476;48.072;11.970;2023-05-20T09:44:05;6.78;;;3.10;;
67063;SDS011;58476;48.072;11.970;2023-05-20T09:46:31;10.40;;;2.90;;
67063;SDS011;58476;48.072;11.970;2023-05-20T09:48:57;4.95;;;2.50;;
67063;SDS011;58476;48.072;11.970;2023-05-20T09:51:23;5.78;;;2.50;;
67063;SDS011;58476;48.072;11.970;2023-05-20T09:53:50;9.02;;;2.85;;
67063;SDS011;58476;48.072;11.970;2023-05-20T09:56:18;8.93;;;3.03;;
67063;SDS011;58476;48.072;11.970;2023-05-20T09:58:44;9.60;;;2.67;;
67063;SDS011;58476;48.072;11.970;2023-05-20T10:01:11;12.80;;;3.20;;
67063;SDS011;58476;48.072;11.970;2023-05-20T10:03:41;8.27;;;3.15;;
67063;SDS011;58476;48.072;11.970;2023-05-20T10:21:36;7.97;;;2.75;;
67063;SDS011;58476;48.072;11.970;2023-05-20T10:24:05;10.38;;;3.35;;
67063;SDS011;58476;48.072;11.970;2023-05-20T10:26:40;9.25;;;2.70;;
67063;SDS011;58476;48.072;11.970;2023-05-20T10:29:15;7.55;;;2.78;;
67063;SDS011;58476;48.072;11.970;2023-05-20T10:31:48;8.40;;;2.80;;
67063;SDS011;58476;48.072;11.970;2023-05-20T10:34:15;11.57;;;3.17;;
67063;SDS011;58476;48.072;11.970;2023-05-20T10:36:44;8.15;;;2.60;;
67063;SDS011;58476;48.072;11.970;2023-05-20T10:39:30;8.07;;;2.60;;
67063;SDS011;58476;48.072;11.970;2023-05-20T10:42:08;9.98;;;3.28;;
67063;SDS011;58476;48.072;11.970;2023-05-20T10:44:42;8.73;;;3.10;;
67063;SDS011;58476;48.072;11.970;2023-05-20T10:47:08;7.75;;;2.50;;
67063;SDS011;58476;48.072;11.970;2023-05-20T10:49:34;5.43;;;2.65;;
67063;SDS011;58476;48.072;11.970;2023-05-20T10:51:59;8.50;;;2.55;;
67063;SDS011;58476;48.072;11.970;2023-05-20T10:54:25;8.40;;;2.70;;
67063;SDS011;58476;48.072;11.970;2023-05-20T10:56:51;11.57;;;2.67;;
67063;SDS011;58476;48.072;11.970;2023-05-20T10:59:17;15.35;;;2.50;;
67063;SDS011;58476;48.072;11.970;2023-05-20T11:01:44;8.95;;;2.40;;
67063;SDS011;58476;48.072;11.970;2023-05-20T11:04:10;10.13;;;2.85;;
67063;SDS011;58476;48.072;11.970;2023-05-20T11:06:37;6.00;;;2.63;;
67063;SDS011;58476;48.072;11.970;2023-05-20T11:09:03;13.38;;;2.65;;
67063;SDS011;58476;48.072;11.970;2023-05-20T11:11:30;6.78;;;2.53;;
67063;SDS011;58476;48.072;11.970;2023-05-20T11:13:55;10.15;;;2.63;;
67063;SDS011;58476;48.072;11.970;2023-05-20T11:16:21;8.50;;;2.50;;
67063;SDS011;58476;48.072;11.970;2023-05-20T11:18:49;7.82;;;2.40;;
67063;SDS011;58476;48.072;11.970;2023-05-20T11:21:14;4.85;;;2.22;;
67063;SDS011;58476;48.072;11.970;2023-05-20T11:23:40;5.13;;;2.70;;
67063;SDS011;58476;48.072;11.970;2023-05-20T11:26:05;7.68;;;2.50;;
67063;SDS011;58476;48.072;11.970;2023-05-20T11:28:31;7.20;;;2.38;;
67063;SDS011;58476;48.072;11.970;2023-05-20T11:30:56;5.45;;;2.60;;
67063;SDS011;58476;48.072;11.970;2023-05-20T11:33:24;6.63;;;2.45;;
67063;SDS011;58476;48.072;11.970;2023-05-20T11:35:50;8.45;;;2.60;;
67063;SDS011;58476;48.072;11.970;2023-05-20T11:38:17;3.85;;;2.42;;
67063;SDS011;58476;48.072;11.970;2023-05-20T11:40:44;7.63;;;2.67;;
67063;SDS011;58476;48.072;11.970;2023-05-20T11:43:11;7.07;;;2.40;;
67063;SDS011;58476;48.072;11.970;2023-05-20T11:45:41;8.05;;;2.50;;
67063;SDS011;58476;48.072;11.970;2023-05-20T11:48:07;11.35;;;2.90;;
67063;SDS011;58476;48.072;11.970;2023-05-20T11:50:37;12.77;;;2.80;;
67063;SDS011;58476;48.072;11.970;2023-05-20T11:53:03;13.68;;;2.97;;
67063;SDS011;58476;48.072;11.970;2023-05-20T11:55:33;4.28;;;2.67;;
67063;SDS011;58476;48.072;11.970;2023-05-20T11:57:59;10.10;;;3.00;;
67063;SDS011;58476;48.072;11.970;2023-05-20T12:00:26;8.75;;;2.70;;
67063;SDS011;58476;48.072;11.970;2023-05-20T12:02:52;6.55;;;2.72;;
67063;SDS011;58476;48.072;11.970;2023-05-20T12:05:17;8.90;;;3.20;;
67063;SDS011;58476;48.072;11.970;2023-05-20T12:07:43;10.10;;;3.30;;
67063;SDS011;58476;48.072;11.970;2023-05-20T12:10:08;9.95;;;4.10;;
67063;SDS011;58476;48.072;11.970;2023-05-20T12:12:34;12.63;;;4.00;;
67063;SDS011;58476;48.072;11.970;2023-05-20T12:14:59;17.88;;;4.10;;
67063;SDS011;58476;48.072;11.970;2023-05-20T12:17:24;9.95;;;3.80;;
67063;SDS011;58476;48.072;11.970;2023-05-20T12:19:50;10.32;;;3.42;;
67063;SDS011;58476;48.072;11.970;2023-05-20T12:22:15;10.10;;;3.88;;
67063;SDS011;58476;48.072;11.970;2023-05-20T12:24:40;7.50;;;3.25;;
67063;SDS011;58476;48.072;11.970;2023-05-20T12:27:05;8.45;;;3.30;;
67063;SDS011;58476;48.072;11.970;2023-05-20T12:29:31;8.30;;;3.42;;
67063;SDS011;58476;48.072;11.970;2023-05-20T12:31:56;7.55;;;3.33;;
67063;SDS011;58476;48.072;11.970;2023-05-20T12:34:22;10.48;;;3.45;;
67063;SDS011;58476;48.072;11.970;2023-05-20T12:36:47;9.63;;;3.40;;
67063;SDS011;58476;48.072;11.970;2023-05-20T12:39:12;10.57;;;3.63;;
67063;SDS011;58476;48.072;11.970;2023-05-20T12:41:38;12.75;;;3.70;;
67063;SDS011;58476;48.072;11.970;2023-05-20T12:44:04;11.10;;;3.67;;
67063;SDS011;58476;48.072;11.970;2023-05-20T12:46:29;8.65;;;3.42;;
67063;SDS011;58476;48.072;11.970;2023-05-20T12:48:55;10.75;;;3.10;;
67063;SDS011;58476;48.072;11.970;2023-05-20T12:51:20;9.23;;;3.47;;
67063;SDS011;58476;48.072;11.970;2023-05-20T12:53:45;11.50;;;3.45;;
67063;SDS011;58476;48.072;11.970;2023-05-20T12:56:11;8.68;;;3.33;;
67063;SDS011;58476;48.072;11.970;2023-05-20T12:58:36;8.02;;;3.55;;
67063;SDS011;58476;48.072;11.970;2023-05-20T13:01:01;7.80;;;3.33;;
67063;SDS011;58476;48.072;11.970;2023-05-20T13:03:27;9.73;;;3.60;;
67063;SDS011;58476;48.072;11.970;2023-05-20T13:05:52;10.32;;;3.45;;
67063;SDS011;58476;48.072;11.970;2023-05-20T13:08:17;8.18;;;3.05;;
67063;SDS011;58476;48.072;11.970;2023-05-20T13:10:42;9.88;;;3.30;;
67063;SDS011;58476;48.072;11.970;2023-05-20T13:13:08;6.90;;;3.40;;
67063;SDS011;58476;48.072;11.970;2023-05-20T13:15:33;8.55;;;3.88;;
67063;SDS011;58476;48.072;11.970;2023-05-20T13:17:58;7.63;;;3.13;;
67063;SDS011;58476;48.072;11.970;2023-05-20T13:20:24;9.32;;;3.40;;
67063;SDS011;58476;48.072;11.970;2023-05-20T13:22:49;8.48;;;3.30;;
67063;SDS011;58476;48.072;11.970;2023-05-20T13:25:14;7.45;;;3.33;;
67063;SDS011;58476;48.072;11.970;2023-05-20T13:27:40;8.18;;;2.90;;
67063;SDS011;58476;48.072;11.970;2023-05-20T13:30:05;6.75;;;3.45;;
67063;SDS011;58476;48.072;11.970;2023-05-20T13:32:31;7.45;;;3.13;;
67063;SDS011;58476;48.072;11.970;2023-05-20T13:34:57;8.10;;;3.25;;
67063;SDS011;58476;48.072;11.970;2023-05-20T13:37:22;4.80;;;3.10;;
67063;SDS011;58476;48.072;11.970;2023-05-20T13:39:47;6.75;;;2.97;;
67063;SDS011;58476;48.072;11.970;2023-05-20T13:42:12;5.82;;;3.25;;
67063;SDS011;58476;48.072;11.970;2023-05-20T13:44:38;11.32;;;3.25;;
67063;SDS011;58476;48.072;11.970;2023-05-20T13:47:03;7.72;;;3.55;;
67063;SDS011;58476;48.072;11.970;2023-05-20T13:49:28;7.78;;;3.20;;
67063;SDS011;58476;48.072;11.970;2023-05-20T13:51:54;7.15;;;3.25;;
67063;SDS011;58476;48.072;11.970;2023-05-20T13:54:19;5.85;;;3.15;;
67063;SDS011;58476;48.072;11.970;2023-05-20T13:56:45;4.65;;;3.05;;
67063;SDS011;58476;48.072;11.970;2023-05-20T13:59:10;7.75;;;3.10;;
67063;SDS011;58476;48.072;11.970;2023-05-20T14:01:35;10.07;;;3.15;;
67063;SDS011;58476;48.072;11.970;2023-05-20T14:04:01;5.28;;;3.17;;
67063;SDS011;58476;48.072;11.970;2023-05-20T14:06:26;6.32;;;3.65;;
67063;SDS011;58476;48.072;11.970;2023-05-20T14:08:53;7.07;;;3.22;;
67063;SDS011;58476;48.072;11.970;2023-05-20T14:11:18;5.35;;;3.15;;
67063;SDS011;58476;48.072;11.970;2023-05-20T14:13:43;4.22;;;2.88;;
67063;SDS011;58476;48.072;11.970;2023-05-20T14:16:09;8.38;;;3.30;;
67063;SDS011;58476;48.072;11.970;2023-05-20T14:18:34;6.43;;;3.38;;
67063;SDS011;58476;48.072;11.970;2023-05-20T14:20:59;6.82;;;3.20;;
67063;SDS011;58476;48.072;11.970;2023-05-20T14:23:25;3.92;;;2.90;;
67063;SDS011;58476;48.072;11.970;2023-05-20T14:25:50;4.45;;;2.90;;
67063;SDS011;58476;48.072;11.970;2023-05-20T14:28:15;4.55;;;2.80;;
67063;SDS011;58476;48.072;11.970;2023-05-20T14:30:40;5.07;;;3.03;;
67063;SDS011;58476;48.072;11.970;2023-05-20T14:33:06;5.20;;;3.25;;
67063;SDS011;58476;48.072;11.970;2023-05-20T14:35:31;4.82;;;3.10;;
67063;SDS011;58476;48.072;11.970;2023-05-20T14:37:57;5.15;;;3.40;;
67063;SDS011;58476;48.072;11.970;2023-05-20T14:40:23;4.85;;;3.40;;
67063;SDS011;58476;48.072;11.970;2023-05-20T14:42:48;4.18;;;2.92;;
67063;SDS011;58476;48.072;11.970;2023-05-20T14:45:13;5.30;;;3.33;;